Middlebury, CT (06762)

11:57 AM EDT on June 02, 2015 (GMT -0400)
APRSWXNET | | Change Station
CLOSE
Current Station
Personal Weather Station
Location: Middlebury, CT
Elevation: 1319 ft
Nearby Weather Stations

Elev 1319 ft 41.50 °N, 73.10 °W | Updated 28 minutes ago

Rain
Rain
46 °F
Feels Like 46 °F
N
0
Wind Variable Wind from ESE
Gusts 6.0 mph

Today
High -- | Low -- °F
--% Chance of Precip.
Yesterday
High -- | Low -- °F
Precip. -- in
5:20 AM 8:20 PM
Full, 100% visible
Pressure 30.17 in
Visibility 5.0 miles
Clouds Overcast 700 ft
Windchill 46 °F
Dew Point 45 °F
Humidity 97%
Rainfall in
Snow Depth Not available.
UV 3 out of 12
Pollen .50 out of 12
Air Quality Not available.
Flu Activity Local Activity
METAR KOXC 021550Z 03009KT 5SM BR OVC007 09/06 A3017

More Conditions Fewer Conditions

Pressure 30.17 in
Visibility 5.0 miles
Clouds Overcast 700 ft
Windchill 46 °F
Dew Point 45 °F
Humidity 97%
Rainfall in
Snow Depth Not available.
UV 3 out of 12
Pollen .50 out of 12
Air Quality Not available.
Flu Activity Local Activity
METAR KOXC 021550Z 03009KT 5SM BR OVC007 09/06 A3017

More Conditions Fewer Conditions

10-Day Weather Forecast

Almanac

Astronomy

Jun. 02, 2015 Rise Set
Actual Time
Civil Twilight
Nautical Twilight
Astronomical Twilight
Moon
Length of Visible Light
Length of Day
Tomorrow will be .
, % of the Moon is Illuminated

Today's Extremes

State Highs State Lows

Community

WunderPhotos

Upload Photos

1,825,966 photos uploaded!

WunderBlogs® & News

Nearby

Air Quality

  Air Quality AQ Index Pollutant
Not available.

Snow Depth

Station Depth Elevation

Earthquake Activity

City Distance Mag. Time & Date
Minimum magnitude displayed is 2.5.

Coastal Water Temperatures

Place Temperature

Stations

Nearby Weather Stations

Station Location Temp. Windchill Dew Point Humidity Wind Precip. Elev Updated Type